sensor_id;sensor_type;location;lat;lon;timestamp;P1;durP1;ratioP1;P2;durP2;ratioP2
6987;SDS011;3534;49.960;8.018;2024-01-30T00:00:18;31.80;;;18.80;;
6987;SDS011;3534;49.960;8.018;2024-01-30T00:02:46;27.37;;;17.93;;
6987;SDS011;3534;49.960;8.018;2024-01-30T00:05:12;23.67;;;18.07;;
6987;SDS011;3534;49.960;8.018;2024-01-30T00:07:40;32.77;;;19.03;;
6987;SDS011;3534;49.960;8.018;2024-01-30T00:10:07;29.37;;;17.87;;
6987;SDS011;3534;49.960;8.018;2024-01-30T00:12:34;40.40;;;19.03;;
6987;SDS011;3534;49.960;8.018;2024-01-30T00:15:00;37.30;;;20.07;;
6987;SDS011;3534;49.960;8.018;2024-01-30T00:17:29;33.27;;;18.70;;
6987;SDS011;3534;49.960;8.018;2024-01-30T00:19:56;36.27;;;17.00;;
6987;SDS011;3534;49.960;8.018;2024-01-30T00:22:22;25.60;;;16.93;;
6987;SDS011;3534;49.960;8.018;2024-01-30T00:24:50;29.10;;;15.90;;
6987;SDS011;3534;49.960;8.018;2024-01-30T00:27:17;19.10;;;14.07;;
6987;SDS011;3534;49.960;8.018;2024-01-30T00:29:44;26.10;;;15.63;;
6987;SDS011;3534;49.960;8.018;2024-01-30T00:32:10;24.93;;;16.47;;
6987;SDS011;3534;49.960;8.018;2024-01-30T00:34:37;23.60;;;16.00;;
6987;SDS011;3534;49.960;8.018;2024-01-30T00:37:03;24.33;;;14.27;;
6987;SDS011;3534;49.960;8.018;2024-01-30T00:39:30;23.47;;;15.80;;
6987;SDS011;3534;49.960;8.018;2024-01-30T00:41:58;25.30;;;16.10;;
6987;SDS011;3534;49.960;8.018;2024-01-30T00:44:25;30.07;;;16.40;;
6987;SDS011;3534;49.960;8.018;2024-01-30T00:46:51;30.03;;;17.30;;
6987;SDS011;3534;49.960;8.018;2024-01-30T00:49:18;26.10;;;15.10;;
6987;SDS011;3534;49.960;8.018;2024-01-30T00:51:45;29.47;;;16.30;;
6987;SDS011;3534;49.960;8.018;2024-01-30T00:54:12;28.27;;;16.97;;
6987;SDS011;3534;49.960;8.018;2024-01-30T00:56:38;26.57;;;16.90;;
6987;SDS011;3534;49.960;8.018;2024-01-30T00:59:06;27.43;;;16.20;;
6987;SDS011;3534;49.960;8.018;2024-01-30T01:01:33;37.03;;;18.77;;
6987;SDS011;3534;49.960;8.018;2024-01-30T01:04:00;32.70;;;17.00;;
6987;SDS011;3534;49.960;8.018;2024-01-30T01:06:27;31.10;;;16.17;;
6987;SDS011;3534;49.960;8.018;2024-01-30T01:08:53;34.37;;;16.50;;
6987;SDS011;3534;49.960;8.018;2024-01-30T01:11:20;32.13;;;16.20;;
6987;SDS011;3534;49.960;8.018;2024-01-30T01:13:47;28.20;;;16.17;;
6987;SDS011;3534;49.960;8.018;2024-01-30T01:16:15;28.50;;;16.73;;
6987;SDS011;3534;49.960;8.018;2024-01-30T01:18:42;36.13;;;18.10;;
6987;SDS011;3534;49.960;8.018;2024-01-30T01:21:09;31.60;;;17.93;;
6987;SDS011;3534;49.960;8.018;2024-01-30T01:23:35;28.53;;;15.60;;
6987;SDS011;3534;49.960;8.018;2024-01-30T01:26:02;23.50;;;14.47;;
6987;SDS011;3534;49.960;8.018;2024-01-30T01:28:29;26.73;;;15.00;;
6987;SDS011;3534;49.960;8.018;2024-01-30T01:30:55;28.53;;;16.00;;
6987;SDS011;3534;49.960;8.018;2024-01-30T01:33:31;24.60;;;16.07;;
6987;SDS011;3534;49.960;8.018;2024-01-30T01:35:58;26.50;;;16.10;;
6987;SDS011;3534;49.960;8.018;2024-01-30T01:38:25;23.00;;;16.20;;
6987;SDS011;3534;49.960;8.018;2024-01-30T01:40:51;26.90;;;16.57;;
6987;SDS011;3534;49.960;8.018;2024-01-30T01:43:18;26.10;;;17.00;;
6987;SDS011;3534;49.960;8.018;2024-01-30T01:45:45;29.67;;;18.30;;
6987;SDS011;3534;49.960;8.018;2024-01-30T01:48:11;27.40;;;18.20;;
6987;SDS011;3534;49.960;8.018;2024-01-30T01:50:40;31.73;;;17.50;;
6987;SDS011;3534;49.960;8.018;2024-01-30T01:53:08;28.20;;;17.00;;
6987;SDS011;3534;49.960;8.018;2024-01-30T01:55:35;32.20;;;17.13;;
6987;SDS011;3534;49.960;8.018;2024-01-30T01:58:02;28.60;;;16.17;;
6987;SDS011;3534;49.960;8.018;2024-01-30T02:00:29;21.53;;;15.30;;
6987;SDS011;3534;49.960;8.018;2024-01-30T02:02:57;25.50;;;15.00;;
6987;SDS011;3534;49.960;8.018;2024-01-30T02:05:25;22.70;;;16.40;;
6987;SDS011;3534;49.960;8.018;2024-01-30T02:07:54;26.47;;;15.43;;
6987;SDS011;3534;49.960;8.018;2024-01-30T02:10:20;22.10;;;14.67;;
6987;SDS011;3534;49.960;8.018;2024-01-30T02:12:48;26.10;;;15.47;;
6987;SDS011;3534;49.960;8.018;2024-01-30T02:15:15;24.07;;;15.73;;
6987;SDS011;3534;49.960;8.018;2024-01-30T02:17:41;23.07;;;14.27;;
6987;SDS011;3534;49.960;8.018;2024-01-30T02:20:08;25.83;;;16.47;;
6987;SDS011;3534;49.960;8.018;2024-01-30T02:22:37;24.40;;;14.97;;
6987;SDS011;3534;49.960;8.018;2024-01-30T02:25:06;22.73;;;14.80;;
6987;SDS011;3534;49.960;8.018;2024-01-30T02:27:33;25.30;;;15.63;;
6987;SDS011;3534;49.960;8.018;2024-01-30T02:30:00;22.13;;;14.50;;
6987;SDS011;3534;49.960;8.018;2024-01-30T02:32:26;23.47;;;15.43;;
6987;SDS011;3534;49.960;8.018;2024-01-30T02:34:53;28.33;;;15.83;;
6987;SDS011;3534;49.960;8.018;2024-01-30T02:37:20;23.70;;;15.30;;
6987;SDS011;3534;49.960;8.018;2024-01-30T02:39:48;22.00;;;14.57;;
6987;SDS011;3534;49.960;8.018;2024-01-30T02:42:14;22.37;;;15.03;;
6987;SDS011;3534;49.960;8.018;2024-01-30T02:44:41;21.17;;;14.90;;
6987;SDS011;3534;49.960;8.018;2024-01-30T02:47:08;20.57;;;14.30;;
6987;SDS011;3534;49.960;8.018;2024-01-30T02:49:34;24.43;;;15.47;;
6987;SDS011;3534;49.960;8.018;2024-01-30T02:52:01;21.13;;;14.30;;
6987;SDS011;3534;49.960;8.018;2024-01-30T02:54:28;24.00;;;15.47;;
6987;SDS011;3534;49.960;8.018;2024-01-30T02:56:57;24.17;;;13.47;;
6987;SDS011;3534;49.960;8.018;2024-01-30T02:59:23;25.27;;;14.97;;
6987;SDS011;3534;49.960;8.018;2024-01-30T03:01:50;23.37;;;13.90;;
6987;SDS011;3534;49.960;8.018;2024-01-30T03:04:17;22.03;;;13.43;;
6987;SDS011;3534;49.960;8.018;2024-01-30T03:06:44;19.13;;;14.10;;
6987;SDS011;3534;49.960;8.018;2024-01-30T03:09:12;20.10;;;14.63;;
6987;SDS011;3534;49.960;8.018;2024-01-30T03:11:39;21.40;;;13.70;;
6987;SDS011;3534;49.960;8.018;2024-01-30T03:14:07;21.13;;;13.90;;
6987;SDS011;3534;49.960;8.018;2024-01-30T03:16:36;21.53;;;13.73;;
6987;SDS011;3534;49.960;8.018;2024-01-30T03:19:02;34.77;;;14.10;;
6987;SDS011;3534;49.960;8.018;2024-01-30T03:21:30;27.80;;;15.70;;
6987;SDS011;3534;49.960;8.018;2024-01-30T03:23:56;19.97;;;13.70;;
6987;SDS011;3534;49.960;8.018;2024-01-30T03:26:23;23.50;;;14.67;;
6987;SDS011;3534;49.960;8.018;2024-01-30T03:28:50;19.73;;;13.43;;
6987;SDS011;3534;49.960;8.018;2024-01-30T03:31:18;27.60;;;15.13;;
6987;SDS011;3534;49.960;8.018;2024-01-30T03:33:44;20.20;;;13.67;;
6987;SDS011;3534;49.960;8.018;2024-01-30T03:36:11;18.73;;;14.33;;
6987;SDS011;3534;49.960;8.018;2024-01-30T03:38:38;17.97;;;13.27;;
6987;SDS011;3534;49.960;8.018;2024-01-30T03:41:07;19.83;;;13.87;;
6987;SDS011;3534;49.960;8.018;2024-01-30T03:43:33;18.77;;;14.03;;
6987;SDS011;3534;49.960;8.018;2024-01-30T03:46:00;20.03;;;13.20;;
6987;SDS011;3534;49.960;8.018;2024-01-30T03:48:29;31.97;;;13.97;;
6987;SDS011;3534;49.960;8.018;2024-01-30T03:50:56;23.57;;;13.73;;
6987;SDS011;3534;49.960;8.018;2024-01-30T03:53:22;23.00;;;12.87;;
6987;SDS011;3534;49.960;8.018;2024-01-30T03:55:49;19.13;;;13.20;;
6987;SDS011;3534;49.960;8.018;2024-01-30T03:58:16;23.17;;;13.60;;
6987;SDS011;3534;49.960;8.018;2024-01-30T04:00:42;19.37;;;13.00;;
6987;SDS011;3534;49.960;8.018;2024-01-30T04:03:09;22.23;;;13.13;;
6987;SDS011;3534;49.960;8.018;2024-01-30T04:05:37;18.27;;;12.47;;
6987;SDS011;3534;49.960;8.018;2024-01-30T04:08:04;20.47;;;13.60;;
6987;SDS011;3534;49.960;8.018;2024-01-30T04:10:31;18.70;;;12.57;;
6987;SDS011;3534;49.960;8.018;2024-01-30T04:12:58;19.93;;;12.63;;
6987;SDS011;3534;49.960;8.018;2024-01-30T04:15:24;71.63;;;34.20;;
6987;SDS011;3534;49.960;8.018;2024-01-30T04:17:51;22.90;;;14.30;;
6987;SDS011;3534;49.960;8.018;2024-01-30T04:20:18;24.50;;;14.73;;
6987;SDS011;3534;49.960;8.018;2024-01-30T04:22:46;20.73;;;14.00;;
6987;SDS011;3534;49.960;8.018;2024-01-30T04:25:13;24.93;;;13.57;;
6987;SDS011;3534;49.960;8.018;2024-01-30T04:27:40;21.03;;;13.10;;
6987;SDS011;3534;49.960;8.018;2024-01-30T04:30:07;18.97;;;12.57;;
6987;SDS011;3534;49.960;8.018;2024-01-30T04:32:35;20.70;;;14.10;;
6987;SDS011;3534;49.960;8.018;2024-01-30T04:35:02;19.97;;;13.53;;
6987;SDS011;3534;49.960;8.018;2024-01-30T04:37:29;24.60;;;15.10;;
6987;SDS011;3534;49.960;8.018;2024-01-30T04:39:58;21.10;;;13.70;;
6987;SDS011;3534;49.960;8.018;2024-01-30T04:42:24;25.87;;;14.80;;
6987;SDS011;3534;49.960;8.018;2024-01-30T04:44:51;23.77;;;16.00;;
6987;SDS011;3534;49.960;8.018;2024-01-30T04:47:17;22.40;;;14.67;;
6987;SDS011;3534;49.960;8.018;2024-01-30T04:49:44;19.73;;;12.83;;
6987;SDS011;3534;49.960;8.018;2024-01-30T04:52:11;19.40;;;13.17;;
6987;SDS011;3534;49.960;8.018;2024-01-30T04:54:37;20.33;;;13.57;;
6987;SDS011;3534;49.960;8.018;2024-01-30T04:57:06;19.30;;;13.33;;
6987;SDS011;3534;49.960;8.018;2024-01-30T04:59:36;25.07;;;15.83;;
6987;SDS011;3534;49.960;8.018;2024-01-30T05:02:03;25.00;;;14.30;;
6987;SDS011;3534;49.960;8.018;2024-01-30T05:04:30;20.30;;;14.33;;
6987;SDS011;3534;49.960;8.018;2024-01-30T05:06:56;23.33;;;15.67;;
6987;SDS011;3534;49.960;8.018;2024-01-30T05:09:23;27.27;;;16.13;;
6987;SDS011;3534;49.960;8.018;2024-01-30T05:11:50;25.23;;;14.67;;
6987;SDS011;3534;49.960;8.018;2024-01-30T05:14:18;23.80;;;15.90;;
6987;SDS011;3534;49.960;8.018;2024-01-30T05:16:44;23.27;;;14.27;;
6987;SDS011;3534;49.960;8.018;2024-01-30T05:19:12;22.77;;;13.53;;
6987;SDS011;3534;49.960;8.018;2024-01-30T05:21:39;23.00;;;14.60;;
6987;SDS011;3534;49.960;8.018;2024-01-30T05:24:07;19.47;;;13.97;;
6987;SDS011;3534;49.960;8.018;2024-01-30T05:26:35;25.63;;;14.67;;
6987;SDS011;3534;49.960;8.018;2024-01-30T05:29:01;24.20;;;14.57;;
6987;SDS011;3534;49.960;8.018;2024-01-30T05:31:30;22.50;;;15.00;;
6987;SDS011;3534;49.960;8.018;2024-01-30T05:33:56;23.93;;;15.07;;
6987;SDS011;3534;49.960;8.018;2024-01-30T05:36:23;23.00;;;14.00;;
6987;SDS011;3534;49.960;8.018;2024-01-30T05:38:50;24.43;;;14.53;;
6987;SDS011;3534;49.960;8.018;2024-01-30T05:41:16;25.93;;;14.93;;
6987;SDS011;3534;49.960;8.018;2024-01-30T05:43:43;24.83;;;14.80;;
6987;SDS011;3534;49.960;8.018;2024-01-30T05:46:10;22.90;;;13.80;;
6987;SDS011;3534;49.960;8.018;2024-01-30T05:48:38;25.47;;;15.03;;
6987;SDS011;3534;49.960;8.018;2024-01-30T05:51:04;24.10;;;14.90;;
6987;SDS011;3534;49.960;8.018;2024-01-30T05:53:33;23.30;;;14.90;;
6987;SDS011;3534;49.960;8.018;2024-01-30T05:56:00;22.80;;;14.50;;
6987;SDS011;3534;49.960;8.018;2024-01-30T05:58:28;21.53;;;14.40;;
6987;SDS011;3534;49.960;8.018;2024-01-30T06:00:56;24.77;;;15.37;;
6987;SDS011;3534;49.960;8.018;2024-01-30T06:03:22;19.40;;;14.37;;
6987;SDS011;3534;49.960;8.018;2024-01-30T06:05:50;19.33;;;14.13;;
6987;SDS011;3534;49.960;8.018;2024-01-30T06:08:17;23.87;;;14.97;;
6987;SDS011;3534;49.960;8.018;2024-01-30T06:10:44;22.73;;;15.00;;
6987;SDS011;3534;49.960;8.018;2024-01-30T06:13:10;22.63;;;14.93;;
6987;SDS011;3534;49.960;8.018;2024-01-30T06:15:37;31.13;;;18.23;;
6987;SDS011;3534;49.960;8.018;2024-01-30T06:18:04;31.67;;;19.30;;
6987;SDS011;3534;49.960;8.018;2024-01-30T06:20:31;32.57;;;18.80;;
6987;SDS011;3534;49.960;8.018;2024-01-30T06:22:59;27.53;;;16.43;;
6987;SDS011;3534;49.960;8.018;2024-01-30T06:25:26;27.57;;;16.03;;
6987;SDS011;3534;49.960;8.018;2024-01-30T06:27:52;28.97;;;17.30;;
6987;SDS011;3534;49.960;8.018;2024-01-30T06:30:19;26.00;;;16.37;;
6987;SDS011;3534;49.960;8.018;2024-01-30T06:32:46;26.37;;;17.80;;
6987;SDS011;3534;49.960;8.018;2024-01-30T06:35:12;31.20;;;16.93;;
6987;SDS011;3534;49.960;8.018;2024-01-30T06:37:39;27.17;;;15.87;;
6987;SDS011;3534;49.960;8.018;2024-01-30T06:40:07;28.57;;;16.10;;
6987;SDS011;3534;49.960;8.018;2024-01-30T06:42:35;27.57;;;16.40;;
6987;SDS011;3534;49.960;8.018;2024-01-30T06:45:01;32.80;;;16.27;;
6987;SDS011;3534;49.960;8.018;2024-01-30T06:47:28;24.10;;;16.90;;
6987;SDS011;3534;49.960;8.018;2024-01-30T06:49:56;23.03;;;15.70;;
6987;SDS011;3534;49.960;8.018;2024-01-30T06:52:22;24.57;;;15.13;;
6987;SDS011;3534;49.960;8.018;2024-01-30T06:54:49;23.97;;;15.20;;
6987;SDS011;3534;49.960;8.018;2024-01-30T06:57:17;29.93;;;18.20;;
6987;SDS011;3534;49.960;8.018;2024-01-30T06:59:44;36.87;;;17.57;;
6987;SDS011;3534;49.960;8.018;2024-01-30T07:02:10;32.57;;;18.40;;
6987;SDS011;3534;49.960;8.018;2024-01-30T07:04:37;26.63;;;17.07;;
6987;SDS011;3534;49.960;8.018;2024-01-30T07:07:04;38.40;;;19.93;;
6987;SDS011;3534;49.960;8.018;2024-01-30T07:09:36;42.17;;;19.83;;
6987;SDS011;3534;49.960;8.018;2024-01-30T07:12:03;46.60;;;22.57;;
6987;SDS011;3534;49.960;8.018;2024-01-30T07:14:32;36.93;;;20.43;;
6987;SDS011;3534;49.960;8.018;2024-01-30T07:16:59;40.40;;;20.10;;
6987;SDS011;3534;49.960;8.018;2024-01-30T07:19:25;41.90;;;22.30;;
6987;SDS011;3534;49.960;8.018;2024-01-30T07:21:52;44.43;;;20.67;;
6987;SDS011;3534;49.960;8.018;2024-01-30T07:24:19;43.90;;;21.37;;
6987;SDS011;3534;49.960;8.018;2024-01-30T07:26:45;41.23;;;22.40;;
6987;SDS011;3534;49.960;8.018;2024-01-30T07:29:12;43.03;;;25.07;;
6987;SDS011;3534;49.960;8.018;2024-01-30T07:31:40;42.83;;;21.00;;
6987;SDS011;3534;49.960;8.018;2024-01-30T07:34:07;32.10;;;19.00;;
6987;SDS011;3534;49.960;8.018;2024-01-30T07:36:33;40.57;;;20.77;;
6987;SDS011;3534;49.960;8.018;2024-01-30T07:39:00;30.20;;;19.87;;
6987;SDS011;3534;49.960;8.018;2024-01-30T07:41:27;39.40;;;22.50;;
6987;SDS011;3534;49.960;8.018;2024-01-30T07:43:53;36.40;;;21.80;;
6987;SDS011;3534;49.960;8.018;2024-01-30T07:46:20;34.77;;;21.23;;
6987;SDS011;3534;49.960;8.018;2024-01-30T07:48:48;48.07;;;25.67;;
6987;SDS011;3534;49.960;8.018;2024-01-30T07:51:15;49.73;;;25.80;;
6987;SDS011;3534;49.960;8.018;2024-01-30T07:53:41;47.60;;;26.03;;
6987;SDS011;3534;49.960;8.018;2024-01-30T07:56:08;41.93;;;23.93;;
6987;SDS011;3534;49.960;8.018;2024-01-30T07:58:35;41.97;;;23.70;;
6987;SDS011;3534;49.960;8.018;2024-01-30T08:01:01;51.03;;;24.93;;
6987;SDS011;3534;49.960;8.018;2024-01-30T08:03:28;38.53;;;21.87;;
6987;SDS011;3534;49.960;8.018;2024-01-30T08:05:56;46.83;;;22.17;;
6987;SDS011;3534;49.960;8.018;2024-01-30T08:08:23;37.97;;;23.77;;
6987;SDS011;3534;49.960;8.018;2024-01-30T08:10:50;45.80;;;27.80;;
6987;SDS011;3534;49.960;8.018;2024-01-30T08:13:17;51.27;;;26.30;;
6987;SDS011;3534;49.960;8.018;2024-01-30T08:15:44;38.40;;;21.23;;
6987;SDS011;3534;49.960;8.018;2024-01-30T08:18:10;37.67;;;21.80;;
6987;SDS011;3534;49.960;8.018;2024-01-30T08:20:37;37.50;;;20.80;;
6987;SDS011;3534;49.960;8.018;2024-01-30T08:23:05;34.73;;;19.53;;
6987;SDS011;3534;49.960;8.018;2024-01-30T08:25:32;34.73;;;20.00;;
6987;SDS011;3534;49.960;8.018;2024-01-30T08:27:58;36.50;;;19.70;;
6987;SDS011;3534;49.960;8.018;2024-01-30T08:30:25;36.83;;;19.90;;
6987;SDS011;3534;49.960;8.018;2024-01-30T08:32:52;39.37;;;20.50;;
6987;SDS011;3534;49.960;8.018;2024-01-30T08:35:18;37.20;;;21.50;;
6987;SDS011;3534;49.960;8.018;2024-01-30T08:37:45;34.80;;;20.00;;
6987;SDS011;3534;49.960;8.018;2024-01-30T08:40:13;31.90;;;19.37;;
6987;SDS011;3534;49.960;8.018;2024-01-30T08:42:40;31.63;;;19.83;;
6987;SDS011;3534;49.960;8.018;2024-01-30T08:45:07;28.90;;;18.10;;
6987;SDS011;3534;49.960;8.018;2024-01-30T08:47:34;29.47;;;18.43;;
6987;SDS011;3534;49.960;8.018;2024-01-30T08:50:01;35.23;;;19.23;;
6987;SDS011;3534;49.960;8.018;2024-01-30T08:52:28;31.80;;;20.03;;
6987;SDS011;3534;49.960;8.018;2024-01-30T08:54:54;27.07;;;19.00;;
6987;SDS011;3534;49.960;8.018;2024-01-30T08:57:22;38.97;;;21.70;;
6987;SDS011;3534;49.960;8.018;2024-01-30T08:59:49;45.13;;;26.33;;
6987;SDS011;3534;49.960;8.018;2024-01-30T09:02:15;73.07;;;34.50;;
6987;SDS011;3534;49.960;8.018;2024-01-30T09:04:43;51.33;;;26.03;;
6987;SDS011;3534;49.960;8.018;2024-01-30T09:07:09;58.47;;;31.50;;
6987;SDS011;3534;49.960;8.018;2024-01-30T09:09:38;108.37;;;53.50;;
6987;SDS011;3534;49.960;8.018;2024-01-30T09:12:06;43.67;;;26.70;;
6987;SDS011;3534;49.960;8.018;2024-01-30T09:14:35;60.73;;;36.13;;
6987;SDS011;3534;49.960;8.018;2024-01-30T09:17:02;44.87;;;28.70;;
6987;SDS011;3534;49.960;8.018;2024-01-30T09:19:30;42.63;;;23.90;;
6987;SDS011;3534;49.960;8.018;2024-01-30T09:21:56;39.63;;;24.50;;
6987;SDS011;3534;49.960;8.018;2024-01-30T09:24:23;39.40;;;23.47;;
6987;SDS011;3534;49.960;8.018;2024-01-30T09:26:51;42.20;;;23.23;;
6987;SDS011;3534;49.960;8.018;2024-01-30T09:29:17;41.13;;;25.40;;
6987;SDS011;3534;49.960;8.018;2024-01-30T09:31:45;43.87;;;24.27;;
6987;SDS011;3534;49.960;8.018;2024-01-30T09:34:12;35.10;;;21.57;;
6987;SDS011;3534;49.960;8.018;2024-01-30T09:36:39;44.00;;;23.80;;
6987;SDS011;3534;49.960;8.018;2024-01-30T09:39:06;39.20;;;22.90;;
6987;SDS011;3534;49.960;8.018;2024-01-30T09:41:32;38.37;;;23.93;;
6987;SDS011;3534;49.960;8.018;2024-01-30T09:44:02;34.10;;;21.30;;
6987;SDS011;3534;49.960;8.018;2024-01-30T09:46:31;34.90;;;20.00;;
6987;SDS011;3534;49.960;8.018;2024-01-30T09:49:00;39.80;;;22.80;;
6987;SDS011;3534;49.960;8.018;2024-01-30T09:51:28;28.90;;;19.03;;
6987;SDS011;3534;49.960;8.018;2024-01-30T09:53:56;25.03;;;17.97;;
6987;SDS011;3534;49.960;8.018;2024-01-30T09:56:23;32.13;;;18.50;;
6987;SDS011;3534;49.960;8.018;2024-01-30T09:58:49;36.20;;;20.60;;
6987;SDS011;3534;49.960;8.018;2024-01-30T10:01:16;28.93;;;18.47;;
6987;SDS011;3534;49.960;8.018;2024-01-30T10:03:44;27.60;;;18.37;;
6987;SDS011;3534;49.960;8.018;2024-01-30T10:06:12;30.80;;;17.90;;
6987;SDS011;3534;49.960;8.018;2024-01-30T10:08:41;35.60;;;19.43;;
6987;SDS011;3534;49.960;8.018;2024-01-30T10:11:08;26.63;;;16.20;;
6987;SDS011;3534;49.960;8.018;2024-01-30T10:13:35;27.57;;;18.33;;
6987;SDS011;3534;49.960;8.018;2024-01-30T10:16:02;34.73;;;21.87;;
6987;SDS011;3534;49.960;8.018;2024-01-30T10:18:31;29.80;;;19.10;;
6987;SDS011;3534;49.960;8.018;2024-01-30T10:20:58;33.37;;;21.13;;
6987;SDS011;3534;49.960;8.018;2024-01-30T10:23:26;29.77;;;19.80;;
6987;SDS011;3534;49.960;8.018;2024-01-30T10:25:53;33.70;;;20.57;;
6987;SDS011;3534;49.960;8.018;2024-01-30T10:28:20;29.07;;;19.23;;
6987;SDS011;3534;49.960;8.018;2024-01-30T10:30:56;32.00;;;20.60;;
6987;SDS011;3534;49.960;8.018;2024-01-30T10:33:24;34.30;;;20.90;;
6987;SDS011;3534;49.960;8.018;2024-01-30T10:35:52;34.23;;;21.30;;
6987;SDS011;3534;49.960;8.018;2024-01-30T10:38:20;27.97;;;21.00;;
6987;SDS011;3534;49.960;8.018;2024-01-30T10:40:52;36.53;;;21.27;;
6987;SDS011;3534;49.960;8.018;2024-01-30T10:43:22;30.93;;;20.43;;
6987;SDS011;3534;49.960;8.018;2024-01-30T10:45:50;35.33;;;21.40;;
6987;SDS011;3534;49.960;8.018;2024-01-30T10:48:23;30.10;;;20.87;;
6987;SDS011;3534;49.960;8.018;2024-01-30T10:50:55;34.03;;;22.47;;
6987;SDS011;3534;49.960;8.018;2024-01-30T10:53:25;40.53;;;22.30;;
6987;SDS011;3534;49.960;8.018;2024-01-30T10:55:54;34.73;;;21.57;;
6987;SDS011;3534;49.960;8.018;2024-01-30T10:58:21;31.40;;;19.80;;
6987;SDS011;3534;49.960;8.018;2024-01-30T11:00:48;26.63;;;18.63;;
6987;SDS011;3534;49.960;8.018;2024-01-30T11:03:16;27.60;;;18.60;;
6987;SDS011;3534;49.960;8.018;2024-01-30T11:05:48;30.60;;;19.57;;
6987;SDS011;3534;49.960;8.018;2024-01-30T11:08:22;32.83;;;21.40;;
6987;SDS011;3534;49.960;8.018;2024-01-30T11:10:54;32.63;;;20.20;;
6987;SDS011;3534;49.960;8.018;2024-01-30T11:13:26;30.87;;;20.30;;
6987;SDS011;3534;49.960;8.018;2024-01-30T11:15:54;32.93;;;19.67;;
6987;SDS011;3534;49.960;8.018;2024-01-30T11:18:24;30.00;;;21.03;;
6987;SDS011;3534;49.960;8.018;2024-01-30T11:20:51;28.27;;;19.77;;
6987;SDS011;3534;49.960;8.018;2024-01-30T11:23:18;31.80;;;19.00;;
6987;SDS011;3534;49.960;8.018;2024-01-30T11:25:48;33.20;;;20.80;;
6987;SDS011;3534;49.960;8.018;2024-01-30T11:28:16;35.80;;;22.17;;
6987;SDS011;3534;49.960;8.018;2024-01-30T11:30:43;36.73;;;21.07;;
6987;SDS011;3534;49.960;8.018;2024-01-30T11:33:12;27.03;;;19.40;;
6987;SDS011;3534;49.960;8.018;2024-01-30T11:35:40;30.53;;;19.43;;
6987;SDS011;3534;49.960;8.018;2024-01-30T11:38:08;34.60;;;20.00;;
6987;SDS011;3534;49.960;8.018;2024-01-30T11:40:36;35.50;;;20.50;;
6987;SDS011;3534;49.960;8.018;2024-01-30T11:43:05;27.63;;;19.30;;
6987;SDS011;3534;49.960;8.018;2024-01-30T11:45:34;31.33;;;20.20;;
6987;SDS011;3534;49.960;8.018;2024-01-30T11:48:01;35.43;;;21.90;;
6987;SDS011;3534;49.960;8.018;2024-01-30T11:50:29;36.63;;;22.80;;
6987;SDS011;3534;49.960;8.018;2024-01-30T11:52:56;32.97;;;22.57;;
6987;SDS011;3534;49.960;8.018;2024-01-30T11:55:24;35.67;;;22.40;;
6987;SDS011;3534;49.960;8.018;2024-01-30T11:57:50;34.03;;;22.00;;
6987;SDS011;3534;49.960;8.018;2024-01-30T12:00:20;33.50;;;19.97;;
6987;SDS011;3534;49.960;8.018;2024-01-30T12:02:50;33.40;;;19.53;;
6987;SDS011;3534;49.960;8.018;2024-01-30T12:05:20;33.23;;;21.33;;
6987;SDS011;3534;49.960;8.018;2024-01-30T12:07:48;27.03;;;21.00;;
6987;SDS011;3534;49.960;8.018;2024-01-30T12:10:15;26.43;;;19.20;;
6987;SDS011;3534;49.960;8.018;2024-01-30T12:12:43;30.80;;;21.07;;
6987;SDS011;3534;49.960;8.018;2024-01-30T12:15:12;35.40;;;25.67;;
6987;SDS011;3534;49.960;8.018;2024-01-30T12:17:39;38.03;;;26.40;;
6987;SDS011;3534;49.960;8.018;2024-01-30T12:20:09;30.37;;;21.30;;
6987;SDS011;3534;49.960;8.018;2024-01-30T12:22:37;39.20;;;24.83;;
6987;SDS011;3534;49.960;8.018;2024-01-30T12:25:05;32.63;;;24.93;;
6987;SDS011;3534;49.960;8.018;2024-01-30T12:27:33;39.27;;;22.27;;
6987;SDS011;3534;49.960;8.018;2024-01-30T12:30:00;34.17;;;24.80;;
6987;SDS011;3534;49.960;8.018;2024-01-30T12:32:27;74.70;;;56.40;;
6987;SDS011;3534;49.960;8.018;2024-01-30T12:34:54;60.63;;;44.80;;
6987;SDS011;3534;49.960;8.018;2024-01-30T12:37:24;37.53;;;24.90;;
6987;SDS011;3534;49.960;8.018;2024-01-30T12:39:51;33.43;;;25.03;;
6987;SDS011;3534;49.960;8.018;2024-01-30T12:42:19;39.03;;;27.97;;
6987;SDS011;3534;49.960;8.018;2024-01-30T12:44:47;35.87;;;26.60;;
6987;SDS011;3534;49.960;8.018;2024-01-30T12:47:14;28.30;;;20.13;;
6987;SDS011;3534;49.960;8.018;2024-01-30T12:49:41;28.50;;;19.33;;
6987;SDS011;3534;49.960;8.018;2024-01-30T12:52:09;28.70;;;20.33;;
6987;SDS011;3534;49.960;8.018;2024-01-30T12:54:37;29.60;;;22.13;;
6987;SDS011;3534;49.960;8.018;2024-01-30T12:57:04;31.03;;;21.73;;
6987;SDS011;3534;49.960;8.018;2024-01-30T12:59:31;32.77;;;23.13;;
6987;SDS011;3534;49.960;8.018;2024-01-30T13:01:59;33.63;;;22.63;;
6987;SDS011;3534;49.960;8.018;2024-01-30T13:04:28;29.33;;;19.50;;
6987;SDS011;3534;49.960;8.018;2024-01-30T13:06:55;32.07;;;22.40;;
6987;SDS011;3534;49.960;8.018;2024-01-30T13:09:22;27.30;;;19.23;;
6987;SDS011;3534;49.960;8.018;2024-01-30T13:11:50;31.53;;;21.20;;
6987;SDS011;3534;49.960;8.018;2024-01-30T13:14:17;28.40;;;19.90;;
6987;SDS011;3534;49.960;8.018;2024-01-30T13:16:44;34.90;;;21.43;;
6987;SDS011;3534;49.960;8.018;2024-01-30T13:19:11;37.10;;;24.63;;
6987;SDS011;3534;49.960;8.018;2024-01-30T13:21:37;34.10;;;22.73;;
6987;SDS011;3534;49.960;8.018;2024-01-30T13:24:05;37.37;;;22.20;;
6987;SDS011;3534;49.960;8.018;2024-01-30T13:26:32;34.43;;;25.00;;
6987;SDS011;3534;49.960;8.018;2024-01-30T13:29:00;28.40;;;21.30;;
6987;SDS011;3534;49.960;8.018;2024-01-30T13:31:27;27.63;;;19.23;;
6987;SDS011;3534;49.960;8.018;2024-01-30T13:33:53;28.87;;;20.20;;
6987;SDS011;3534;49.960;8.018;2024-01-30T13:36:20;31.33;;;21.30;;
6987;SDS011;3534;49.960;8.018;2024-01-30T13:38:47;28.27;;;18.97;;
6987;SDS011;3534;49.960;8.018;2024-01-30T13:41:14;26.40;;;18.40;;
6987;SDS011;3534;49.960;8.018;2024-01-30T13:43:41;27.37;;;19.70;;
6987;SDS011;3534;49.960;8.018;2024-01-30T13:46:10;23.97;;;18.40;;
6987;SDS011;3534;49.960;8.018;2024-01-30T13:48:37;31.60;;;21.50;;
6987;SDS011;3534;49.960;8.018;2024-01-30T13:51:04;28.13;;;20.57;;
6987;SDS011;3534;49.960;8.018;2024-01-30T13:53:31;32.63;;;21.67;;
6987;SDS011;3534;49.960;8.018;2024-01-30T13:55:57;28.43;;;19.27;;
6987;SDS011;3534;49.960;8.018;2024-01-30T13:58:24;29.00;;;19.60;;
6987;SDS011;3534;49.960;8.018;2024-01-30T14:00:52;26.50;;;18.87;;
6987;SDS011;3534;49.960;8.018;2024-01-30T14:03:20;26.20;;;18.93;;
6987;SDS011;3534;49.960;8.018;2024-01-30T14:05:47;26.67;;;19.90;;
6987;SDS011;3534;49.960;8.018;2024-01-30T14:08:13;24.97;;;19.93;;
6987;SDS011;3534;49.960;8.018;2024-01-30T14:10:41;27.10;;;19.47;;
6987;SDS011;3534;49.960;8.018;2024-01-30T14:13:07;36.23;;;19.20;;
6987;SDS011;3534;49.960;8.018;2024-01-30T14:15:35;29.50;;;18.60;;
6987;SDS011;3534;49.960;8.018;2024-01-30T14:18:02;27.20;;;19.80;;
6987;SDS011;3534;49.960;8.018;2024-01-30T14:20:30;27.73;;;19.40;;
6987;SDS011;3534;49.960;8.018;2024-01-30T14:22:57;34.93;;;22.37;;
6987;SDS011;3534;49.960;8.018;2024-01-30T14:25:24;41.53;;;24.47;;
6987;SDS011;3534;49.960;8.018;2024-01-30T14:27:51;95.23;;;39.27;;
6987;SDS011;3534;49.960;8.018;2024-01-30T14:30:18;75.47;;;34.00;;
6987;SDS011;3534;49.960;8.018;2024-01-30T14:32:44;71.53;;;39.40;;
6987;SDS011;3534;49.960;8.018;2024-01-30T14:35:11;84.00;;;41.20;;
6987;SDS011;3534;49.960;8.018;2024-01-30T14:37:39;37.33;;;24.20;;
6987;SDS011;3534;49.960;8.018;2024-01-30T14:40:07;33.50;;;20.87;;
6987;SDS011;3534;49.960;8.018;2024-01-30T14:42:34;29.93;;;20.53;;
6987;SDS011;3534;49.960;8.018;2024-01-30T14:45:02;32.83;;;21.90;;
6987;SDS011;3534;49.960;8.018;2024-01-30T14:47:29;28.23;;;19.87;;